West Vancouver, British Columbia

8:14 AM PDT on October 24, 2014 (GMT -0700)
West Haven Wynd | Change Station
CLOSE
Current Station
Personal Weather Station
Location: West Vancouver, BRITISH COLUMBIA
Elevation: 350 ft
Nearby Weather Stations

Elev 350 ft 49.36 °N, 123.26 °W | Updated 1 minute ago

Overcast
Overcast
47.5 °F
Feels Like 48 °F
N
2.2
Wind Variable Wind from ENE

Today is forecast to be nearly the same temperature as yesterday.

Today
High -- | Low -- °F
--% Chance of Precip.
Yesterday
High -- | Low -- °F
Precip. -- in
7:48 AM 6:04 PM
New Moon, 1% visible
Pressure 30.06 in
Visibility 15.0 miles
Clouds Few 1900 ft
Scattered Clouds 2400 ft
Overcast 3800 ft
Windchill 48 °F
Dew Point 47 °F
Humidity 99%
Rainfall 0.00 in
Snow Depth Not available.
UV 0 out of 12
Pollen Not available.
Air Quality Not available.
Flu Activity Not available.
METAR CYVR 241500Z 10008KT 15SM FEW019 SCT024 OVC038 09/08 A3006 RMK SC1SC3SC4 SLP180

More Conditions Fewer Conditions

Pressure 30.06 in
Visibility 15.0 miles
Clouds Few 1900 ft
Scattered Clouds 2400 ft
Overcast 3800 ft
Windchill 48 °F
Dew Point 47 °F
Humidity 99%
Rainfall 0.00 in
Snow Depth Not available.
UV 0 out of 12
Pollen Not available.
Air Quality Not available.
Flu Activity Not available.
METAR CYVR 241500Z 10008KT 15SM FEW019 SCT024 OVC038 09/08 A3006 RMK SC1SC3SC4 SLP180

More Conditions Fewer Conditions

10-Day Weather Forecast

Almanac

Astronomy

Oct. 24, 2014 Rise Set
Actual Time 7:48 AM PDT 6:04 PM PDT
Civil Twilight 7:15 AM PDT 6:37 PM PDT
Nautical Twilight 6:38 AM PDT 7:14 PM PDT
Astronomical Twilight 6:01 AM PDT 7:51 PM PDT
Moon 8:36 AM PDT 6:43 PM PDT
Length of Visible Light 11h 22m
Length of Day
10h 16m
Tomorrow will be 3m 26s shorter.
New Moon, 1% of the Moon is Illuminated
Today
New Moon
Oct 30
First Quarter
Nov 6
Full
Nov 14
Last Quarter
Nov 22
New

Today's Extremes

Country Highs Country Lows

Community

WunderPhotos

Upload Photos

1,764,587 photos uploaded!

WunderBlogs® & News

Nearby

Snow Depth

Not available.

Earthquake Activity

City Distance Mag. Time & Date
No recent earthquake activity has been reported nearby.
Minimum magnitude displayed is 2.5.

Coastal Water Temperatures

Place Temperature
No Stations Reporting

Nearby Weather Stations